Time;durP1;ratioP1;P1;durP2;ratioP2;P2;SDS_P1;SDS_P2;PMS_P1;PMS_P2;Temp;Humidity;BMP_temperature;BMP_pressure;BME280_temperature;BME280_humidity;BME280_pressure;Samples;Min_cycle;Max_cycle;Signal;HPM_P1;HPM_P2
2023/05/12 00:01:32;;;;;;;;;;;;;;;;;;5071435;28;19954;-58
2023/05/12 00:03:57;;;;;;;;;;;;;;;;;;5071841;28;19948;-58
2023/05/12 00:06:23;;;;;;;;;;;;;;;;;;5072257;28;20517;-58
2023/05/12 00:08:49;;;;;;;;;;;;;;;;;;5074077;28;19956;-58
2023/05/12 00:11:15;;;;;;;;;;;;;;;;;;5072858;28;19924;-58
2023/05/12 00:13:41;;;;;;;;;;;;;;;;;;5070670;28;20002;-57
2023/05/12 00:16:07;;;;;;;;;;;;;;;;;;5071839;28;20366;-58
2023/05/12 00:18:33;;;;;;;;;;;;;;;;;;5069610;28;20376;-58
2023/05/12 00:21:00;;;;;;;;;;;;;;;;;;5070448;28;20004;-58
2023/05/12 00:23:25;;;;;;;;;;;;;;;;;;5078259;28;20380;-58
2023/05/12 00:25:51;;;;;;;;;;;;;;;;;;5080387;28;19919;-58
2023/05/12 00:28:17;;;;;;;;;;;;;;;;;;5075985;28;19917;-58
2023/05/12 00:30:43;;;;;;;;;;;;;;;;;;5077699;28;20010;-58
2023/05/12 00:33:09;;;;;;;;;;;;;;;;;;5078507;28;19919;-58
2023/05/12 00:35:35;;;;;;;;;;;;;;;;;;5075002;28;19920;-58
2023/05/12 00:38:01;;;;;;;;;;;;;;;;;;5074944;28;19920;-58
2023/05/12 00:40:27;;;;;;;;;;;;;;;;;;5074247;28;20372;-58
2023/05/12 00:42:53;;;;;;;;;;;;;;;;;;5069321;28;19913;-58
2023/05/12 00:45:20;;;;;;;;;;;;;;;;;;5075012;28;20302;-58
2023/05/12 00:47:46;;;;;;;;;;;;;;;;;;5072212;28;19913;-59
2023/05/12 00:50:12;;;;;;;;;;;;;;;;;;5074725;28;19935;-58
2023/05/12 00:52:38;;;;;;;;;;;;;;;;;;5072911;28;20447;-58
2023/05/12 00:55:04;;;;;;;;;;;;;;;;;;5075140;28;19915;-58
2023/05/12 00:57:30;;;;;;;;;;;;;;;;;;5071093;28;19912;-59
2023/05/12 00:59:56;;;;;;;;;;;;;;;;;;5074930;28;19924;-58
2023/05/12 01:02:22;;;;;;;;;;;;;;;;;;5075656;28;19995;-60
2023/05/12 01:04:47;;;;;;;;;;;;;;;;;;5075347;28;19919;-60
2023/05/12 01:07:13;;;;;;;;;;;;;;;;;;5076729;28;19962;-60
2023/05/12 01:09:39;;;;;;;;;;;;;;;;;;5076666;28;19943;-60
2023/05/12 01:12:05;;;;;;;;;;;;;;;;;;5073238;28;20396;-60
2023/05/12 01:14:32;;;;;;;;;;;;;;;;;;5074012;28;20039;-60
2023/05/12 01:16:58;;;;;;;;;;;;;;;;;;5074509;28;19913;-60
2023/05/12 01:19:24;;;;;;;;;;;;;;;;;;5074107;28;19954;-60
2023/05/12 01:21:50;;;;;;;;;;;;;;;;;;5076636;28;20314;-60
2023/05/12 01:24:16;;;;;;;;;;;;;;;;;;5075459;28;19916;-60
2023/05/12 01:26:42;;;;;;;;;;;;;;;;;;5074383;28;19963;-60
2023/05/12 01:29:08;;;;;;;;;;;;;;;;;;5073968;28;19991;-60
2023/05/12 01:31:34;;;;;;;;;;;;;;;;;;5076986;28;19919;-60
2023/05/12 01:34:00;;;;;;;;;;;;;;;;;;5072567;28;20382;-60
2023/05/12 01:36:26;;;;;;;;;;;;;;;;;;5072869;28;19959;-60
2023/05/12 01:38:51;;;;;;;;;;;;;;;;;;5073445;28;19912;-60
2023/05/12 01:41:17;;;;;;;;;;;;;;;;;;5085566;28;19943;-60
2023/05/12 01:43:43;;;;;;;;;;;;;;;;;;5094797;28;20331;-60
2023/05/12 01:46:09;;;;;;;;;;;;;;;;;;5079959;28;19923;-60
2023/05/12 01:48:35;;;;;;;;;;;;;;;;;;5073607;28;19939;-60
2023/05/12 01:51:01;;;;;;;;;;;;;;;;;;5066406;28;20448;-60
2023/05/12 01:53:27;;;;;;;;;;;;;;;;;;5072398;28;19969;-60
2023/05/12 01:55:53;;;;;;;;;;;;;;;;;;5070630;28;19959;-60
2023/05/12 01:58:19;;;;;;;;;;;;;;;;;;5073672;28;19912;-60
2023/05/12 02:00:45;;;;;;;;;;;;;;;;;;5073388;28;19969;-60
2023/05/12 02:03:11;;;;;;;;;;;;;;;;;;5077226;28;19978;-60
2023/05/12 02:05:37;;;;;;;;;;;;;;;;;;5074204;28;19916;-60
2023/05/12 02:08:03;;;;;;;;;;;;;;;;;;5072897;28;19942;-60
2023/05/12 02:10:29;;;;;;;;;;;;;;;;;;5073109;28;20372;-60
2023/05/12 02:12:55;;;;;;;;;;;;;;;;;;5075513;28;19978;-59
2023/05/12 02:15:21;;;;;;;;;;;;;;;;;;5070908;28;20396;-60
2023/05/12 02:17:47;;;;;;;;;;;;;;;;;;5069969;28;19915;-60
2023/05/12 02:20:12;;;;;;;;;;;;;;;;;;5072318;28;19916;-60
2023/05/12 02:22:38;;;;;;;;;;;;;;;;;;5071579;28;20020;-60
2023/05/12 02:25:04;;;;;;;;;;;;;;;;;;5071260;28;20321;-60
2023/05/12 02:27:31;;;;;;;;;;;;;;;;;;5070628;28;19966;-60
2023/05/12 02:29:57;;;;;;;;;;;;;;;;;;5077175;28;19939;-60
2023/05/12 02:32:26;;;;;;;;;;;;;;;;;;5073264;28;19913;-60
2023/05/12 02:34:52;;;;;;;;;;;;;;;;;;5076614;28;19912;-60
2023/05/12 02:37:18;;;;;;;;;;;;;;;;;;5072391;28;19923;-60
2023/05/12 02:39:44;;;;;;;;;;;;;;;;;;5073597;28;20376;-60
2023/05/12 02:42:10;;;;;;;;;;;;;;;;;;5072474;28;19927;-60
2023/05/12 02:44:36;;;;;;;;;;;;;;;;;;5070711;28;20075;-60
2023/05/12 02:47:02;;;;;;;;;;;;;;;;;;5072414;28;19908;-60
2023/05/12 02:49:28;;;;;;;;;;;;;;;;;;5072974;28;19984;-60
2023/05/12 02:51:54;;;;;;;;;;;;;;;;;;5070671;28;19948;-60
2023/05/12 02:54:20;;;;;;;;;;;;;;;;;;5072915;28;19913;-60
2023/05/12 02:56:46;;;;;;;;;;;;;;;;;;5072702;28;20013;-60
2023/05/12 02:59:12;;;;;;;;;;;;;;;;;;5072121;28;20009;-60
2023/05/12 03:01:37;;;;;;;;;;;;;;;;;;5072167;28;20372;-59
2023/05/12 03:04:03;;;;;;;;;;;;;;;;;;5069396;28;20008;-60
2023/05/12 03:06:29;;;;;;;;;;;;;;;;;;5070913;28;20007;-60
2023/05/12 03:08:55;;;;;;;;;;;;;;;;;;5069101;28;20398;-60
2023/05/12 03:11:21;;;;;;;;;;;;;;;;;;5069003;28;20388;-60
2023/05/12 03:13:47;;;;;;;;;;;;;;;;;;5071311;28;20007;-60
2023/05/12 03:16:15;;;;;;;;;;;;;;;;;;5071014;28;19919;-60
2023/05/12 03:18:42;;;;;;;;;;;;;;;;;;5070679;28;20351;-60
2023/05/12 03:21:08;;;;;;;;;;;;;;;;;;5063382;28;19917;-60
2023/05/12 03:23:34;;;;;;;;;;;;;;;;;;5074232;28;20421;-60
2023/05/12 03:26:00;;;;;;;;;;;;;;;;;;5081219;28;19912;-60
2023/05/12 03:28:26;;;;;;;;;;;;;;;;;;5071224;28;19927;-60
2023/05/12 03:30:52;;;;;;;;;;;;;;;;;;5070572;28;19962;-59
2023/05/12 03:33:18;;;;;;;;;;;;;;;;;;5075358;28;19954;-60
2023/05/12 03:35:44;;;;;;;;;;;;;;;;;;5070409;28;20003;-60
2023/05/12 03:38:09;;;;;;;;;;;;;;;;;;5071418;28;20054;-60
2023/05/12 03:40:35;;;;;;;;;;;;;;;;;;5069665;28;20314;-60
2023/05/12 03:43:01;;;;;;;;;;;;;;;;;;5070217;28;19982;-60
2023/05/12 03:45:27;;;;;;;;;;;;;;;;;;5070352;28;19913;-60
2023/05/12 03:47:53;;;;;;;;;;;;;;;;;;5071154;28;19912;-60
2023/05/12 03:50:19;;;;;;;;;;;;;;;;;;5069806;28;19967;-60
2023/05/12 03:52:45;;;;;;;;;;;;;;;;;;5061611;28;19920;-60
2023/05/12 03:55:11;;;;;;;;;;;;;;;;;;5070975;28;19912;-60
2023/05/12 03:57:37;;;;;;;;;;;;;;;;;;5068763;28;19997;-60
2023/05/12 04:00:03;;;;;;;;;;;;;;;;;;5065386;28;20996;-59
2023/05/12 04:02:29;;;;;;;;;;;;;;;;;;5065910;28;19920;-60
2023/05/12 04:04:55;;;;;;;;;;;;;;;;;;5066425;28;19912;-60
2023/05/12 04:07:21;;;;;;;;;;;;;;;;;;5068477;28;19988;-60
2023/05/12 04:09:47;;;;;;;;;;;;;;;;;;5068661;28;20053;-60
2023/05/12 04:12:13;;;;;;;;;;;;;;;;;;5070690;28;20011;-59
2023/05/12 04:14:39;;;;;;;;;;;;;;;;;;5071133;28;19968;-60
2023/05/12 04:17:05;;;;;;;;;;;;;;;;;;5065159;28;20341;-60
2023/05/12 04:19:31;;;;;;;;;;;;;;;;;;5071513;28;19909;-60
2023/05/12 04:21:56;;;;;;;;;;;;;;;;;;5071594;28;19920;-59
2023/05/12 04:24:24;;;;;;;;;;;;;;;;;;5072186;28;19999;-60
2023/05/12 04:26:50;;;;;;;;;;;;;;;;;;5072214;28;19921;-60
2023/05/12 04:29:16;;;;;;;;;;;;;;;;;;5069449;28;19952;-60
2023/05/12 04:31:42;;;;;;;;;;;;;;;;;;5074139;28;19916;-60
2023/05/12 04:34:07;;;;;;;;;;;;;;;;;;5069064;28;19913;-60
2023/05/12 04:36:33;;;;;;;;;;;;;;;;;;5070658;28;19936;-60
2023/05/12 04:38:59;;;;;;;;;;;;;;;;;;5072137;28;19920;-60
2023/05/12 04:41:25;;;;;;;;;;;;;;;;;;5070954;28;20606;-60
2023/05/12 04:43:51;;;;;;;;;;;;;;;;;;5070801;28;20023;-60
2023/05/12 04:46:17;;;;;;;;;;;;;;;;;;5067736;28;19979;-60
2023/05/12 04:48:44;;;;;;;;;;;;;;;;;;5076333;28;19920;-60
2023/05/12 04:51:09;;;;;;;;;;;;;;;;;;5067180;28;20376;-60
2023/05/12 04:53:35;;;;;;;;;;;;;;;;;;5065498;28;20001;-59
2023/05/12 04:56:01;;;;;;;;;;;;;;;;;;5067190;28;19962;-60
2023/05/12 04:58:27;;;;;;;;;;;;;;;;;;5068623;28;19952;-60
2023/05/12 05:00:53;;;;;;;;;;;;;;;;;;5068271;28;19914;-60
2023/05/12 05:03:19;;;;;;;;;;;;;;;;;;5067519;28;20349;-60
2023/05/12 05:05:45;;;;;;;;;;;;;;;;;;5068645;28;19916;-60
2023/05/12 05:08:11;;;;;;;;;;;;;;;;;;5074720;28;19924;-60
2023/05/12 05:10:39;;;;;;;;;;;;;;;;;;5068377;28;20329;-62
2023/05/12 05:13:05;;;;;;;;;;;;;;;;;;5075518;28;19912;-60
2023/05/12 05:15:31;;;;;;;;;;;;;;;;;;5072406;28;19959;-60
2023/05/12 05:17:58;;;;;;;;;;;;;;;;;;5068911;28;20315;-60
2023/05/12 05:20:24;;;;;;;;;;;;;;;;;;5073966;28;19923;-60
2023/05/12 05:22:51;;;;;;;;;;;;;;;;;;5079932;28;19916;-60
2023/05/12 05:25:17;;;;;;;;;;;;;;;;;;5074755;28;19932;-60
2023/05/12 05:27:42;;;;;;;;;;;;;;;;;;5073398;28;20420;-59
2023/05/12 05:30:08;;;;;;;;;;;;;;;;;;5084619;28;20371;-60
2023/05/12 05:32:35;;;;;;;;;;;;;;;;;;5064792;28;19971;-60
2023/05/12 05:35:01;;;;;;;;;;;;;;;;;;5062941;28;19999;-60
2023/05/12 05:37:27;;;;;;;;;;;;;;;;;;5069640;28;19913;-60
2023/05/12 05:39:53;;;;;;;;;;;;;;;;;;5067765;28;20365;-60
2023/05/12 05:42:19;;;;;;;;;;;;;;;;;;5072293;28;19967;-60
2023/05/12 05:44:45;;;;;;;;;;;;;;;;;;5073447;28;19963;-60
2023/05/12 05:47:11;;;;;;;;;;;;;;;;;;5071262;28;20360;-59
2023/05/12 05:49:37;;;;;;;;;;;;;;;;;;5074004;28;20053;-60
2023/05/12 05:52:02;;;;;;;;;;;;;;;;;;5071054;28;19924;-60
2023/05/12 05:54:28;;;;;;;;;;;;;;;;;;5073884;28;19908;-60
2023/05/12 05:56:54;;;;;;;;;;;;;;;;;;5074172;28;19909;-60
2023/05/12 05:59:20;;;;;;;;;;;;;;;;;;5074412;28;19913;-60
2023/05/12 06:01:46;;;;;;;;;;;;;;;;;;5074515;28;20296;-60
2023/05/12 06:04:12;;;;;;;;;;;;;;;;;;5071060;28;20011;-60
2023/05/12 06:06:38;;;;;;;;;;;;;;;;;;5073556;28;19930;-60
2023/05/12 06:09:04;;;;;;;;;;;;;;;;;;5073039;28;19915;-60
2023/05/12 06:11:30;;;;;;;;;;;;;;;;;;5072471;28;19959;-60
2023/05/12 06:13:56;;;;;;;;;;;;;;;;;;5072470;28;20532;-60
2023/05/12 06:16:21;;;;;;;;;;;;;;;;;;5073182;28;19917;-60
2023/05/12 06:18:47;;;;;;;;;;;;;;;;;;5076253;28;20319;-60
2023/05/12 06:21:13;;;;;;;;;;;;;;;;;;5070184;28;19950;-60
2023/05/12 06:23:39;;;;;;;;;;;;;;;;;;5072761;28;19996;-60
2023/05/12 06:26:06;;;;;;;;;;;;;;;;;;5073560;28;20490;-60
2023/05/12 06:28:32;;;;;;;;;;;;;;;;;;5073065;28;19923;-60
2023/05/12 06:30:58;;;;;;;;;;;;;;;;;;5073024;28;19916;-60
2023/05/12 06:33:24;;;;;;;;;;;;;;;;;;5068535;28;19960;-60
2023/05/12 06:35:50;;;;;;;;;;;;;;;;;;5074687;28;20451;-60
2023/05/12 06:38:16;;;;;;;;;;;;;;;;;;5071919;28;19917;-60
2023/05/12 06:40:42;;;;;;;;;;;;;;;;;;5090861;28;20333;-60
2023/05/12 06:43:08;;;;;;;;;;;;;;;;;;5093724;28;19961;-60
2023/05/12 06:45:34;;;;;;;;;;;;;;;;;;5093620;28;19905;-60
2023/05/12 06:48:02;;;;;;;;;;;;;;;;;;5089458;28;20421;-60
2023/05/12 06:50:27;;;;;;;;;;;;;;;;;;5073219;28;19970;-60
2023/05/12 06:52:53;;;;;;;;;;;;;;;;;;5073622;28;20372;-60
2023/05/12 06:55:19;;;;;;;;;;;;;;;;;;5071184;28;19923;-60
2023/05/12 06:57:45;;;;;;;;;;;;;;;;;;5071236;28;19983;-60
2023/05/12 07:00:11;;;;;;;;;;;;;;;;;;5071421;28;19915;-60
2023/05/12 07:02:37;;;;;;;;;;;;;;;;;;5072803;28;20418;-60
2023/05/12 07:05:03;;;;;;;;;;;;;;;;;;5072409;28;19912;-60
2023/05/12 07:07:29;;;;;;;;;;;;;;;;;;5068878;28;19951;-60
2023/05/12 07:09:55;;;;;;;;;;;;;;;;;;5073904;28;19999;-60
2023/05/12 07:12:21;;;;;;;;;;;;;;;;;;5070356;28;19919;-60
2023/05/12 07:14:47;;;;;;;;;;;;;;;;;;5069998;28;20373;-60
2023/05/12 07:17:13;;;;;;;;;;;;;;;;;;5067320;28;19986;-60
2023/05/12 07:19:39;;;;;;;;;;;;;;;;;;5071956;28;19909;-60
2023/05/12 07:22:07;;;;;;;;;;;;;;;;;;5069665;28;21534;-60
2023/05/12 07:24:33;;;;;;;;;;;;;;;;;;5072111;28;19916;-61
2023/05/12 07:26:59;;;;;;;;;;;;;;;;;;5072568;28;20406;-60
2023/05/12 07:29:25;;;;;;;;;;;;;;;;;;5072624;28;19977;-61
2023/05/12 07:31:51;;;;;;;;;;;;;;;;;;5073345;28;19955;-60
2023/05/12 07:34:17;;;;;;;;;;;;;;;;;;5072036;28;19918;-60
2023/05/12 07:36:43;;;;;;;;;;;;;;;;;;5079684;28;20360;-60
2023/05/12 07:39:09;;;;;;;;;;;;;;;;;;5076161;28;19909;-60
2023/05/12 07:41:35;;;;;;;;;;;;;;;;;;5071559;28;19915;-60
2023/05/12 07:44:01;;;;;;;;;;;;;;;;;;5074860;28;19951;-60
2023/05/12 07:46:27;;;;;;;;;;;;;;;;;;5074352;28;19954;-60
2023/05/12 07:48:53;;;;;;;;;;;;;;;;;;5069810;28;20436;-60
2023/05/12 07:51:19;;;;;;;;;;;;;;;;;;5071280;28;20364;-60
2023/05/12 07:53:45;;;;;;;;;;;;;;;;;;5065431;28;19974;-61
2023/05/12 07:56:11;;;;;;;;;;;;;;;;;;5066400;28;20007;-60
2023/05/12 07:58:37;;;;;;;;;;;;;;;;;;5071118;28;20336;-60
2023/05/12 08:01:05;;;;;;;;;;;;;;;;;;5072311;28;20404;-60
2023/05/12 08:03:31;;;;;;;;;;;;;;;;;;5071853;28;20010;-61
2023/05/12 08:05:57;;;;;;;;;;;;;;;;;;5071540;28;19939;-61
2023/05/12 08:08:23;;;;;;;;;;;;;;;;;;5067341;28;20302;-60
2023/05/12 08:10:49;;;;;;;;;;;;;;;;;;5067285;28;20011;-58
2023/05/12 08:13:15;;;;;;;;;;;;;;;;;;5071055;28;19917;-58
2023/05/12 08:15:41;;;;;;;;;;;;;;;;;;5071722;28;19993;-60
2023/05/12 08:18:07;;;;;;;;;;;;;;;;;;5072535;28;20383;-58
2023/05/12 08:20:33;;;;;;;;;;;;;;;;;;5069894;28;19948;-58
2023/05/12 08:22:59;;;;;;;;;;;;;;;;;;5074152;28;19998;-58
2023/05/12 08:25:29;;;;;;;;;;;;;;;;;;5072382;28;20015;-60
2023/05/12 08:27:56;;;;;;;;;;;;;;;;;;5065568;28;19913;-59
2023/05/12 08:30:22;;;;;;;;;;;;;;;;;;5066391;28;19924;-60
2023/05/12 08:32:48;;;;;;;;;;;;;;;;;;5073216;28;19917;-60
2023/05/12 08:35:14;;;;;;;;;;;;;;;;;;5073747;28;20394;-59
2023/05/12 08:37:39;;;;;;;;;;;;;;;;;;5070226;28;20685;-59
2023/05/12 08:40:05;;;;;;;;;;;;;;;;;;5083737;28;19954;-60
2023/05/12 08:42:31;;;;;;;;;;;;;;;;;;5072354;28;19909;-60
2023/05/12 08:44:57;;;;;;;;;;;;;;;;;;5072122;28;19912;-59
2023/05/12 08:47:24;;;;;;;;;;;;;;;;;;5077322;28;20414;-59
2023/05/12 08:49:50;;;;;;;;;;;;;;;;;;5074754;28;20364;-59
2023/05/12 08:52:20;;;;;;;;;;;;;;;;;;5073875;28;19923;-59
2023/05/12 08:54:46;;;;;;;;;;;;;;;;;;5072776;28;19917;-59
2023/05/12 08:57:12;;;;;;;;;;;;;;;;;;5075244;28;19931;-60
2023/05/12 08:59:38;;;;;;;;;;;;;;;;;;5075176;28;19943;-60
2023/05/12 09:02:03;;;;;;;;;;;;;;;;;;5071613;28;19909;-60
2023/05/12 09:04:29;;;;;;;;;;;;;;;;;;5074524;28;20011;-59
2023/05/12 09:06:57;;;;;;;;;;;;;;;;;;5075154;28;19917;-59
2023/05/12 09:09:22;;;;;;;;;;;;;;;;;;5074589;28;19985;-59
2023/05/12 09:11:48;;;;;;;;;;;;;;;;;;5069831;28;19912;-59
2023/05/12 09:14:14;;;;;;;;;;;;;;;;;;5071664;28;20030;-59
2023/05/12 09:16:40;;;;;;;;;;;;;;;;;;5073598;28;19946;-59
2023/05/12 09:19:06;;;;;;;;;;;;;;;;;;5068131;28;20398;-59
2023/05/12 09:21:33;;;;;;;;;;;;;;;;;;5071463;28;19951;-59
2023/05/12 09:23:58;;;;;;;;;;;;;;;;;;5071271;28;19935;-59
2023/05/12 09:26:24;;;;;;;;;;;;;;;;;;5083999;28;19919;-60
2023/05/12 09:28:50;;;;;;;;;;;;;;;;;;5072776;28;19968;-59
2023/05/12 09:31:16;;;;;;;;;;;;;;;;;;5074698;28;19963;-59
2023/05/12 09:33:42;;;;;;;;;;;;;;;;;;5077789;28;20003;-60
2023/05/12 09:36:08;;;;;;;;;;;;;;;;;;5074549;28;20033;-60
2023/05/12 09:38:34;;;;;;;;;;;;;;;;;;5074342;28;19909;-59
2023/05/12 09:41:00;;;;;;;;;;;;;;;;;;5067980;28;19963;-59
2023/05/12 09:43:26;;;;;;;;;;;;;;;;;;5072590;28;19959;-59
2023/05/12 09:45:54;;;;;;;;;;;;;;;;;;5074350;28;20349;-59
2023/05/12 09:48:21;;;;;;;;;;;;;;;;;;5073541;28;19962;-59
2023/05/12 09:50:46;;;;;;;;;;;;;;;;;;5073977;28;20447;-59
2023/05/12 09:53:13;;;;;;;;;;;;;;;;;;5074150;28;19952;-59
2023/05/12 09:55:39;;;;;;;;;;;;;;;;;;5073537;28;19908;-59
2023/05/12 09:58:05;;;;;;;;;;;;;;;;;;5072388;28;20007;-59
2023/05/12 10:00:31;;;;;;;;;;;;;;;;;;5074112;28;19920;-59
2023/05/12 10:02:57;;;;;;;;;;;;;;;;;;5083770;28;20290;-59
2023/05/12 10:05:23;;;;;;;;;;;;;;;;;;5074022;28;19908;-59
2023/05/12 10:07:49;;;;;;;;;;;;;;;;;;5074015;28;19909;-59
2023/05/12 10:10:15;;;;;;;;;;;;;;;;;;5071028;28;19916;-60
2023/05/12 10:12:41;;;;;;;;;;;;;;;;;;5072076;28;19998;-59
2023/05/12 10:15:07;;;;;;;;;;;;;;;;;;5081431;28;19920;-59
2023/05/12 10:17:33;;;;;;;;;;;;;;;;;;5073381;28;19935;-59
2023/05/12 10:19:59;;;;;;;;;;;;;;;;;;5072686;28;20358;-59
2023/05/12 10:22:25;;;;;;;;;;;;;;;;;;5073353;28;20027;-59
2023/05/12 10:24:51;;;;;;;;;;;;;;;;;;5073524;28;19908;-59
2023/05/12 10:27:17;;;;;;;;;;;;;;;;;;5068503;28;19912;-59
2023/05/12 10:29:43;;;;;;;;;;;;;;;;;;5069487;28;20431;-59
2023/05/12 10:32:09;;;;;;;;;;;;;;;;;;5073946;28;20013;-59
2023/05/12 10:34:35;;;;;;;;;;;;;;;;;;5075271;28;20439;-59
2023/05/12 10:37:02;;;;;;;;;;;;;;;;;;5070932;28;20003;-61
2023/05/12 10:39:28;;;;;;;;;;;;;;;;;;5069136;28;19912;-59
2023/05/12 10:41:54;;;;;;;;;;;;;;;;;;5070563;28;19917;-59
2023/05/12 10:44:20;;;;;;;;;;;;;;;;;;5071979;28;19908;-60
2023/05/12 10:46:46;;;;;;;;;;;;;;;;;;5072689;28;19921;-59
2023/05/12 10:49:14;;;;;;;;;;;;;;;;;;5072225;28;19963;-59
2023/05/12 10:51:40;;;;;;;;;;;;;;;;;;5074924;28;21752;-60
2023/05/12 10:54:06;;;;;;;;;;;;;;;;;;5072365;28;19982;-59
2023/05/12 10:56:32;;;;;;;;;;;;;;;;;;5073434;28;19981;-59
2023/05/12 10:58:58;;;;;;;;;;;;;;;;;;5070584;28;19947;-60
2023/05/12 11:01:24;;;;;;;;;;;;;;;;;;5071594;28;20033;-60
2023/05/12 11:03:50;;;;;;;;;;;;;;;;;;5072534;28;19909;-59
2023/05/12 11:06:16;;;;;;;;;;;;;;;;;;5069922;28;19913;-59
2023/05/12 11:08:41;;;;;;;;;;;;;;;;;;5077405;28;20269;-59
2023/05/12 11:11:07;;;;;;;;;;;;;;;;;;5070150;28;20451;-60
2023/05/12 11:13:33;;;;;;;;;;;;;;;;;;5067554;28;19938;-60
2023/05/12 11:15:59;;;;;;;;;;;;;;;;;;5070013;28;19924;-60
2023/05/12 11:18:25;;;;;;;;;;;;;;;;;;5072231;28;19999;-59
2023/05/12 11:20:51;;;;;;;;;;;;;;;;;;5071988;28;19909;-59
2023/05/12 11:23:17;;;;;;;;;;;;;;;;;;5072013;28;19924;-59
2023/05/12 11:25:43;;;;;;;;;;;;;;;;;;5068474;28;19970;-59
2023/05/12 11:28:09;;;;;;;;;;;;;;;;;;5072492;28;19909;-59
2023/05/12 11:30:35;;;;;;;;;;;;;;;;;;5071050;28;20311;-60
2023/05/12 11:33:01;;;;;;;;;;;;;;;;;;5074609;28;20345;-60
2023/05/12 11:35:27;;;;;;;;;;;;;;;;;;5072560;28;19966;-59
2023/05/12 11:37:52;;;;;;;;;;;;;;;;;;5070667;28;20422;-60
2023/05/12 11:40:18;;;;;;;;;;;;;;;;;;5074630;28;19909;-59
2023/05/12 11:42:47;;;;;;;;;;;;;;;;;;5076649;28;20015;-59
2023/05/12 11:45:13;;;;;;;;;;;;;;;;;;5076223;28;19915;-59
2023/05/12 11:47:39;;;;;;;;;;;;;;;;;;5071375;28;19951;-59
2023/05/12 11:50:05;;;;;;;;;;;;;;;;;;5071838;28;20326;-59
2023/05/12 11:52:31;;;;;;;;;;;;;;;;;;5073969;28;20015;-59
2023/05/12 11:54:56;;;;;;;;;;;;;;;;;;5064377;28;20030;-59
2023/05/12 11:57:22;;;;;;;;;;;;;;;;;;5061717;28;19913;-60
2023/05/12 11:59:49;;;;;;;;;;;;;;;;;;5074814;28;19986;-59
2023/05/12 12:02:15;;;;;;;;;;;;;;;;;;5072302;28;20299;-60
2023/05/12 12:04:41;;;;;;;;;;;;;;;;;;5072046;28;19909;-59
2023/05/12 12:07:06;;;;;;;;;;;;;;;;;;5071804;28;19968;-59
2023/05/12 12:09:32;;;;;;;;;;;;;;;;;;5072037;28;19996;-60
2023/05/12 12:11:58;;;;;;;;;;;;;;;;;;5071694;28;19966;-59
2023/05/12 12:14:24;;;;;;;;;;;;;;;;;;5070397;28;20322;-60
2023/05/12 12:16:50;;;;;;;;;;;;;;;;;;5076931;28;19939;-60
2023/05/12 12:19:16;;;;;;;;;;;;;;;;;;5075492;28;20324;-60
2023/05/12 12:21:42;;;;;;;;;;;;;;;;;;5074284;28;19919;-60
2023/05/12 12:24:08;;;;;;;;;;;;;;;;;;5075017;28;20379;-60
2023/05/12 12:26:34;;;;;;;;;;;;;;;;;;5075994;28;19951;-60
2023/05/12 12:29:00;;;;;;;;;;;;;;;;;;5075781;28;19994;-59
2023/05/12 12:31:26;;;;;;;;;;;;;;;;;;5074086;28;19916;-60
2023/05/12 12:33:51;;;;;;;;;;;;;;;;;;5073180;28;19916;-60
2023/05/12 12:36:17;;;;;;;;;;;;;;;;;;5073604;28;19952;-60
2023/05/12 12:38:43;;;;;;;;;;;;;;;;;;5074141;28;19923;-60
2023/05/12 12:41:09;;;;;;;;;;;;;;;;;;5074959;28;20402;-60
2023/05/12 12:43:35;;;;;;;;;;;;;;;;;;5075448;28;19998;-60
2023/05/12 12:46:01;;;;;;;;;;;;;;;;;;5074950;28;19917;-60
2023/05/12 12:48:27;;;;;;;;;;;;;;;;;;5074948;28;19912;-60
2023/05/12 12:50:53;;;;;;;;;;;;;;;;;;5074485;28;19920;-59
2023/05/12 12:53:19;;;;;;;;;;;;;;;;;;5075419;28;20363;-60
2023/05/12 12:55:45;;;;;;;;;;;;;;;;;;5074457;28;20361;-60
2023/05/12 12:58:12;;;;;;;;;;;;;;;;;;5075418;28;19908;-61
2023/05/12 13:00:38;;;;;;;;;;;;;;;;;;5074836;28;19983;-60
2023/05/12 13:03:03;;;;;;;;;;;;;;;;;;5075353;28;19908;-60
2023/05/12 13:05:29;;;;;;;;;;;;;;;;;;5074715;28;20311;-60
2023/05/12 13:07:55;;;;;;;;;;;;;;;;;;5075261;28;19912;-60
2023/05/12 13:10:21;;;;;;;;;;;;;;;;;;5074688;28;20031;-60
2023/05/12 13:12:47;;;;;;;;;;;;;;;;;;5073862;28;19916;-60
2023/05/12 13:15:13;;;;;;;;;;;;;;;;;;5074902;28;19969;-60
2023/05/12 13:17:39;;;;;;;;;;;;;;;;;;5075028;28;20544;-60
2023/05/12 13:20:05;;;;;;;;;;;;;;;;;;5074076;28;20421;-60
2023/05/12 13:22:31;;;;;;;;;;;;;;;;;;5073404;28;19912;-59
2023/05/12 13:24:57;;;;;;;;;;;;;;;;;;5073261;28;19958;-60
2023/05/12 13:27:23;;;;;;;;;;;;;;;;;;5065318;28;19952;-60
2023/05/12 13:29:49;;;;;;;;;;;;;;;;;;5063204;28;19931;-60
2023/05/12 13:32:15;;;;;;;;;;;;;;;;;;5072868;28;20291;-60
2023/05/12 13:34:41;;;;;;;;;;;;;;;;;;5074823;28;19943;-60
2023/05/12 13:37:07;;;;;;;;;;;;;;;;;;5085682;28;19943;-60
2023/05/12 13:39:34;;;;;;;;;;;;;;;;;;5061995;28;19963;-60
2023/05/12 13:42:00;;;;;;;;;;;;;;;;;;5072356;28;20279;-60
2023/05/12 13:44:26;;;;;;;;;;;;;;;;;;5075970;28;19919;-60
2023/05/12 13:46:52;;;;;;;;;;;;;;;;;;5070830;28;21758;-60
2023/05/12 13:49:21;;;;;;;;;;;;;;;;;;5073160;28;19916;-60
2023/05/12 13:51:47;;;;;;;;;;;;;;;;;;5076875;28;20391;-60
2023/05/12 13:54:13;;;;;;;;;;;;;;;;;;5073187;28;19970;-60
2023/05/12 13:56:39;;;;;;;;;;;;;;;;;;5066783;28;19990;-60
2023/05/12 13:59:04;;;;;;;;;;;;;;;;;;5066199;28;19998;-60
2023/05/12 14:01:30;;;;;;;;;;;;;;;;;;5057971;28;19943;-60
2023/05/12 14:03:56;;;;;;;;;;;;;;;;;;5074226;28;20540;-60
2023/05/12 14:06:22;;;;;;;;;;;;;;;;;;5064194;28;19966;-59
2023/05/12 14:08:48;;;;;;;;;;;;;;;;;;5072004;28;20314;-60
2023/05/12 14:11:15;;;;;;;;;;;;;;;;;;5069342;28;19917;-60
2023/05/12 14:13:41;;;;;;;;;;;;;;;;;;5054358;28;20370;-60
2023/05/12 14:16:07;;;;;;;;;;;;;;;;;;5030082;28;19917;-60
2023/05/12 14:18:33;;;;;;;;;;;;;;;;;;5025822;28;19913;-60
2023/05/12 14:20:59;;;;;;;;;;;;;;;;;;5023222;28;19967;-60
2023/05/12 14:23:25;;;;;;;;;;;;;;;;;;5028514;28;19956;-60
2023/05/12 14:25:51;;;;;;;;;;;;;;;;;;5030302;28;19999;-60
2023/05/12 14:28:17;;;;;;;;;;;;;;;;;;5026430;28;19953;-60
2023/05/12 14:30:43;;;;;;;;;;;;;;;;;;5030340;28;19960;-60
2023/05/12 14:33:09;;;;;;;;;;;;;;;;;;5032167;28;19958;-60
2023/05/12 14:35:35;;;;;;;;;;;;;;;;;;5033118;28;19951;-61
2023/05/12 14:38:01;;;;;;;;;;;;;;;;;;5018143;28;19955;-60
2023/05/12 14:40:27;;;;;;;;;;;;;;;;;;5018026;28;19917;-60
2023/05/12 14:42:54;;;;;;;;;;;;;;;;;;5029721;28;19917;-60
2023/05/12 14:45:19;;;;;;;;;;;;;;;;;;5031590;28;20008;-60
2023/05/12 14:47:46;;;;;;;;;;;;;;;;;;5037163;28;20005;-60
2023/05/12 14:50:12;;;;;;;;;;;;;;;;;;5027182;28;20277;-60
2023/05/12 14:52:38;;;;;;;;;;;;;;;;;;5026589;28;19945;-60
2023/05/12 14:55:04;;;;;;;;;;;;;;;;;;5031616;28;19916;-60
2023/05/12 14:57:32;;;;;;;;;;;;;;;;;;5027868;28;19921;-60
2023/05/12 14:59:58;;;;;;;;;;;;;;;;;;5024639;28;19917;-60
2023/05/12 15:02:24;;;;;;;;;;;;;;;;;;5031754;28;19967;-60
2023/05/12 15:04:50;;;;;;;;;;;;;;;;;;5031548;28;19956;-60
2023/05/12 15:07:16;;;;;;;;;;;;;;;;;;5028018;28;20002;-60
2023/05/12 15:09:42;;;;;;;;;;;;;;;;;;5029794;28;20288;-60
2023/05/12 15:12:08;;;;;;;;;;;;;;;;;;5023330;28;19920;-60
2023/05/12 15:14:35;;;;;;;;;;;;;;;;;;5033286;28;20023;-60
2023/05/12 15:17:01;;;;;;;;;;;;;;;;;;5047493;28;19923;-60
2023/05/12 15:19:27;;;;;;;;;;;;;;;;;;5049146;28;20005;-60
2023/05/12 15:21:53;;;;;;;;;;;;;;;;;;5049333;28;19944;-60
2023/05/12 15:24:19;;;;;;;;;;;;;;;;;;5048757;28;20415;-60
2023/05/12 15:26:45;;;;;;;;;;;;;;;;;;5041736;28;21156;-60
2023/05/12 15:29:11;;;;;;;;;;;;;;;;;;5044844;28;19998;-60
2023/05/12 15:31:37;;;;;;;;;;;;;;;;;;5051788;28;19913;-59
2023/05/12 15:34:03;;;;;;;;;;;;;;;;;;5051276;28;19955;-59
2023/05/12 15:36:29;;;;;;;;;;;;;;;;;;5051912;28;19956;-59
2023/05/12 15:38:55;;;;;;;;;;;;;;;;;;5051707;28;20380;-60
2023/05/12 15:41:21;;;;;;;;;;;;;;;;;;5051963;28;19955;-60
2023/05/12 15:43:47;;;;;;;;;;;;;;;;;;5051375;28;19942;-59
2023/05/12 15:46:13;;;;;;;;;;;;;;;;;;5049546;28;19948;-60
2023/05/12 15:48:39;;;;;;;;;;;;;;;;;;5059134;28;19955;-60
2023/05/12 15:51:05;;;;;;;;;;;;;;;;;;5051890;28;20007;-59
2023/05/12 15:53:31;;;;;;;;;;;;;;;;;;5048842;28;19951;-59
2023/05/12 15:55:57;;;;;;;;;;;;;;;;;;5047880;28;19967;-59
2023/05/12 15:58:23;;;;;;;;;;;;;;;;;;5032435;28;20348;-59
2023/05/12 16:00:49;;;;;;;;;;;;;;;;;;5064211;28;19999;-59
2023/05/12 16:03:15;;;;;;;;;;;;;;;;;;5058835;28;19923;-59
2023/05/12 16:05:40;;;;;;;;;;;;;;;;;;5052200;28;20353;-59
2023/05/12 16:08:06;;;;;;;;;;;;;;;;;;5051979;28;19913;-60
2023/05/12 16:10:32;;;;;;;;;;;;;;;;;;5059119;28;19920;-59
2023/05/12 16:12:58;;;;;;;;;;;;;;;;;;5054174;28;19909;-59
2023/05/12 16:15:24;;;;;;;;;;;;;;;;;;5052189;28;19904;-59
2023/05/12 16:17:50;;;;;;;;;;;;;;;;;;5051178;28;19912;-60
2023/05/12 16:20:16;;;;;;;;;;;;;;;;;;5045514;28;19995;-59
2023/05/12 16:22:42;;;;;;;;;;;;;;;;;;5047440;28;20288;-59
2023/05/12 16:25:08;;;;;;;;;;;;;;;;;;5050180;28;19966;-59
2023/05/12 16:27:35;;;;;;;;;;;;;;;;;;5035843;28;20335;-59
2023/05/12 16:30:01;;;;;;;;;;;;;;;;;;5043844;28;20290;-59
2023/05/12 16:32:26;;;;;;;;;;;;;;;;;;5042543;28;19972;-59
2023/05/12 16:34:52;;;;;;;;;;;;;;;;;;5049397;28;19967;-59
2023/05/12 16:37:18;;;;;;;;;;;;;;;;;;5041187;28;20075;-59